Winsford, United Kingdom
Current Conditions -  °F | °C
As of 10:50 AM on Friday 21 Nov 2014 (Local Time) from EGCC Reporting Station
Few Clouds Few Clouds  
Wind Chill: 40°   Ceiling: Unl
Heat Index: 46°   Visibility: 5mi
Dew Point: 41°   Wind: 16mph
Humidity: 81%   Direction: 130°SE
Pressure: 30.06"   Gusts: NA
Location:  53.19°N, 2.52°W
Report Text: EGCC 211050Z 13014KT 090V170 8000 FEW019 08/05 Q1018 NOSIG
Loading
Personal Weather Stations






























Interactive Weather Map New forecast layout! Learn more

10-Day Weather Forecast

Advertisements
Track Severe Weather on mobile